sensor_id;sensor_type;location;lat;lon;timestamp;pressure;altitude;pressure_sealevel;temperature;humidity
37200;BME280;23096;50.892;16.746;2023-04-08T00:00:06;99450.27;;;3.73;79.06
37200;BME280;23096;50.892;16.746;2023-04-08T00:02:35;99452.48;;;3.74;79.18
37200;BME280;23096;50.892;16.746;2023-04-08T00:05:01;99447.89;;;3.78;79.25
37200;BME280;23096;50.892;16.746;2023-04-08T00:07:26;99445.17;;;3.79;79.13
37200;BME280;23096;50.892;16.746;2023-04-08T00:09:52;99444.48;;;3.81;79.20
37200;BME280;23096;50.892;16.746;2023-04-08T00:12:17;99445.17;;;3.82;79.26
37200;BME280;23096;50.892;16.746;2023-04-08T00:14:43;99444.14;;;3.82;79.20
37200;BME280;23096;50.892;16.746;2023-04-08T00:17:08;99447.05;;;3.83;79.22
37200;BME280;23096;50.892;16.746;2023-04-08T00:19:34;99447.71;;;3.84;79.09
37200;BME280;23096;50.892;16.746;2023-04-08T00:22:01;99451.29;;;3.83;79.13
37200;BME280;23096;50.892;16.746;2023-04-08T00:24:26;99450.95;;;3.82;79.13
37200;BME280;23096;50.892;16.746;2023-04-08T00:26:52;99452.82;;;3.81;79.14
37200;BME280;23096;50.892;16.746;2023-04-08T00:29:17;99455.37;;;3.81;79.14
37200;BME280;23096;50.892;16.746;2023-04-08T00:31:43;99454.69;;;3.80;79.14
37200;BME280;23096;50.892;16.746;2023-04-08T00:34:09;99457.23;;;3.79;79.23
37200;BME280;23096;50.892;16.746;2023-04-08T00:36:34;99457.75;;;3.80;79.21
37200;BME280;23096;50.892;16.746;2023-04-08T00:39:00;99455.38;;;3.80;79.32
37200;BME280;23096;50.892;16.746;2023-04-08T00:41:26;99455.89;;;3.81;79.17
37200;BME280;23096;50.892;16.746;2023-04-08T00:43:53;99458.77;;;3.82;79.24
37200;BME280;23096;50.892;16.746;2023-04-08T00:46:18;99462.16;;;3.84;79.28
37200;BME280;23096;50.892;16.746;2023-04-08T00:48:45;99463.86;;;3.86;79.44
37200;BME280;23096;50.892;16.746;2023-04-08T00:51:10;99467.08;;;3.86;79.14
37200;BME280;23096;50.892;16.746;2023-04-08T00:53:36;99467.09;;;3.87;79.14
37200;BME280;23096;50.892;16.746;2023-04-08T00:56:02;99467.08;;;3.86;79.18
37200;BME280;23096;50.892;16.746;2023-04-08T00:58:28;99470.83;;;3.88;79.38
37200;BME280;23096;50.892;16.746;2023-04-08T01:01:02;99470.66;;;3.87;79.24
37200;BME280;23096;50.892;16.746;2023-04-08T01:03:56;99472.01;;;3.84;79.22
37200;BME280;23096;50.892;16.746;2023-04-08T01:06:43;99476.42;;;3.84;79.25
37200;BME280;23096;50.892;16.746;2023-04-08T01:09:16;99477.97;;;3.87;79.34
37200;BME280;23096;50.892;16.746;2023-04-08T01:11:45;99483.91;;;3.87;79.36
37200;BME280;23096;50.892;16.746;2023-04-08T01:14:22;99481.88;;;3.83;79.43
37200;BME280;23096;50.892;16.746;2023-04-08T01:16:50;99479.48;;;3.82;79.44
37200;BME280;23096;50.892;16.746;2023-04-08T01:19:28;99483.41;;;3.83;79.30
37200;BME280;23096;50.892;16.746;2023-04-08T01:22:01;99485.11;;;3.83;79.27
37200;BME280;23096;50.892;16.746;2023-04-08T01:24:30;99484.77;;;3.80;79.37
37200;BME280;23096;50.892;16.746;2023-04-08T01:26:58;99485.28;;;3.79;79.37
37200;BME280;23096;50.892;16.746;2023-04-08T01:29:26;99491.40;;;3.76;79.44
37200;BME280;23096;50.892;16.746;2023-04-08T01:31:54;99492.08;;;3.75;79.35
37200;BME280;23096;50.892;16.746;2023-04-08T01:34:23;99493.27;;;3.75;79.46
37200;BME280;23096;50.892;16.746;2023-04-08T01:36:50;99489.52;;;3.77;79.55
37200;BME280;23096;50.892;16.746;2023-04-08T01:39:17;99485.27;;;3.79;79.44
37200;BME280;23096;50.892;16.746;2023-04-08T01:41:45;99484.94;;;3.83;79.69
37200;BME280;23096;50.892;16.746;2023-04-08T01:44:12;99488.33;;;3.89;79.59
37200;BME280;23096;50.892;16.746;2023-04-08T01:46:40;99494.27;;;3.95;79.68
37200;BME280;23096;50.892;16.746;2023-04-08T01:49:07;99494.45;;;3.99;79.65
37200;BME280;23096;50.892;16.746;2023-04-08T01:51:36;99497.83;;;4.00;79.60
37200;BME280;23096;50.892;16.746;2023-04-08T01:54:02;99498.86;;;3.99;79.76
37200;BME280;23096;50.892;16.746;2023-04-08T01:56:30;99503.11;;;3.99;79.71
37200;BME280;23096;50.892;16.746;2023-04-08T01:58:59;99501.58;;;3.98;79.58
37200;BME280;23096;50.892;16.746;2023-04-08T02:01:26;99500.05;;;3.98;79.65
37200;BME280;23096;50.892;16.746;2023-04-08T02:03:54;99505.14;;;4.00;79.61
37200;BME280;23096;50.892;16.746;2023-04-08T02:06:23;99504.96;;;4.00;79.71
37200;BME280;23096;50.892;16.746;2023-04-08T02:08:50;99504.98;;;3.97;79.62
37200;BME280;23096;50.892;16.746;2023-04-08T02:11:16;99509.23;;;3.94;79.60
37200;BME280;23096;50.892;16.746;2023-04-08T02:13:42;99509.23;;;3.91;79.59
37200;BME280;23096;50.892;16.746;2023-04-08T02:16:15;99512.63;;;3.89;79.73
37200;BME280;23096;50.892;16.746;2023-04-08T02:18:45;99508.21;;;3.92;79.81
37200;BME280;23096;50.892;16.746;2023-04-08T02:21:17;99510.09;;;3.94;79.73
37200;BME280;23096;50.892;16.746;2023-04-08T02:23:47;99511.79;;;3.95;79.70
37200;BME280;23096;50.892;16.746;2023-04-08T02:26:15;99516.02;;;3.94;79.82
37200;BME280;23096;50.892;16.746;2023-04-08T02:28:41;99523.16;;;3.93;79.76
37200;BME280;23096;50.892;16.746;2023-04-08T02:31:09;99525.55;;;3.93;79.72
37200;BME280;23096;50.892;16.746;2023-04-08T02:33:39;99526.58;;;3.95;79.87
37200;BME280;23096;50.892;16.746;2023-04-08T02:36:05;99528.61;;;3.97;79.75
37200;BME280;23096;50.892;16.746;2023-04-08T02:38:31;99529.30;;;3.98;79.85
37200;BME280;23096;50.892;16.746;2023-04-08T02:40:57;99530.47;;;3.99;79.75
37200;BME280;23096;50.892;16.746;2023-04-08T02:43:23;99532.52;;;3.98;79.79
37200;BME280;23096;50.892;16.746;2023-04-08T02:46:03;99535.91;;;3.98;79.88
37200;BME280;23096;50.892;16.746;2023-04-08T02:48:30;99535.40;;;3.98;79.89
37200;BME280;23096;50.892;16.746;2023-04-08T02:50:55;99539.14;;;3.99;79.86
37200;BME280;23096;50.892;16.746;2023-04-08T02:53:22;99538.81;;;3.99;79.93
37200;BME280;23096;50.892;16.746;2023-04-08T02:55:48;99539.48;;;4.00;79.90
37200;BME280;23096;50.892;16.746;2023-04-08T02:58:14;99540.84;;;4.04;79.94
37200;BME280;23096;50.892;16.746;2023-04-08T03:00:40;99543.38;;;4.08;79.98
37200;BME280;23096;50.892;16.746;2023-04-08T03:03:06;99545.93;;;4.11;80.07
37200;BME280;23096;50.892;16.746;2023-04-08T03:05:31;99549.51;;;4.12;80.07
37200;BME280;23096;50.892;16.746;2023-04-08T03:07:57;99551.21;;;4.12;79.93
37200;BME280;23096;50.892;16.746;2023-04-08T03:10:23;99551.73;;;4.12;80.06
37200;BME280;23096;50.892;16.746;2023-04-08T03:12:48;99553.08;;;4.11;80.03
37200;BME280;23096;50.892;16.746;2023-04-08T03:15:14;99554.78;;;4.12;80.04
37200;BME280;23096;50.892;16.746;2023-04-08T03:17:40;99557.16;;;4.11;80.03
37200;BME280;23096;50.892;16.746;2023-04-08T03:20:06;99557.85;;;4.10;80.11
37200;BME280;23096;50.892;16.746;2023-04-08T03:22:32;99558.52;;;4.10;80.14
37200;BME280;23096;50.892;16.746;2023-04-08T03:24:58;99560.39;;;4.09;80.12
37200;BME280;23096;50.892;16.746;2023-04-08T03:27:24;99560.22;;;4.08;80.21
37200;BME280;23096;50.892;16.746;2023-04-08T03:29:50;99561.25;;;4.07;80.14
37200;BME280;23096;50.892;16.746;2023-04-08T03:32:15;99561.91;;;4.03;80.13
37200;BME280;23096;50.892;16.746;2023-04-08T03:34:41;99567.02;;;4.00;80.09
37200;BME280;23096;50.892;16.746;2023-04-08T03:37:06;99567.70;;;3.97;80.09
37200;BME280;23096;50.892;16.746;2023-04-08T03:39:32;99575.52;;;3.97;80.10
37200;BME280;23096;50.892;16.746;2023-04-08T03:41:58;99571.77;;;3.96;80.24
37200;BME280;23096;50.892;16.746;2023-04-08T03:44:25;99573.64;;;3.97;80.16
37200;BME280;23096;50.892;16.746;2023-04-08T03:46:51;99574.51;;;3.99;80.27
37200;BME280;23096;50.892;16.746;2023-04-08T03:49:17;99578.58;;;4.00;80.24
37200;BME280;23096;50.892;16.746;2023-04-08T03:51:42;99580.11;;;3.98;80.13
37200;BME280;23096;50.892;16.746;2023-04-08T03:54:08;99582.15;;;3.95;80.17
37200;BME280;23096;50.892;16.746;2023-04-08T03:56:34;99578.06;;;3.94;80.21
37200;BME280;23096;50.892;16.746;2023-04-08T03:58:59;99584.88;;;3.93;80.25
37200;BME280;23096;50.892;16.746;2023-04-08T04:01:25;99588.27;;;3.92;80.12
37200;BME280;23096;50.892;16.746;2023-04-08T04:03:50;99589.80;;;3.90;80.08
37200;BME280;23096;50.892;16.746;2023-04-08T04:06:16;99591.34;;;3.88;80.10
37200;BME280;23096;50.892;16.746;2023-04-08T04:08:41;99595.41;;;3.85;80.11
37200;BME280;23096;50.892;16.746;2023-04-08T04:11:07;99598.63;;;3.84;80.21
37200;BME280;23096;50.892;16.746;2023-04-08T04:13:32;99602.20;;;3.84;80.23
37200;BME280;23096;50.892;16.746;2023-04-08T04:15:58;99602.37;;;3.83;80.18
37200;BME280;23096;50.892;16.746;2023-04-08T04:18:24;99607.80;;;3.82;80.13
37200;BME280;23096;50.892;16.746;2023-04-08T04:20:49;99609.50;;;3.81;80.14
37200;BME280;23096;50.892;16.746;2023-04-08T04:23:15;99613.42;;;3.81;80.17
37200;BME280;23096;50.892;16.746;2023-04-08T04:25:41;99613.08;;;3.80;80.24
37200;BME280;23096;50.892;16.746;2023-04-08T04:28:06;99618.17;;;3.80;80.30
37200;BME280;23096;50.892;16.746;2023-04-08T04:30:38;99622.09;;;3.80;80.25
37200;BME280;23096;50.892;16.746;2023-04-08T04:33:04;99627.69;;;3.79;80.32
37200;BME280;23096;50.892;16.746;2023-04-08T04:35:30;99631.94;;;3.79;80.15
37200;BME280;23096;50.892;16.746;2023-04-08T04:37:56;99638.05;;;3.78;80.35
37200;BME280;23096;50.892;16.746;2023-04-08T04:40:21;99639.09;;;3.79;80.27
37200;BME280;23096;50.892;16.746;2023-04-08T04:42:47;99640.43;;;3.77;80.24
37200;BME280;23096;50.892;16.746;2023-04-08T04:45:12;99641.61;;;3.76;80.03
37200;BME280;23096;50.892;16.746;2023-04-08T04:47:38;99646.89;;;3.75;80.16
37200;BME280;23096;50.892;16.746;2023-04-08T04:50:04;99651.63;;;3.71;80.23
37200;BME280;23096;50.892;16.746;2023-04-08T04:52:30;99654.69;;;3.68;80.27
37200;BME280;23096;50.892;16.746;2023-04-08T04:54:57;99658.25;;;3.67;80.35
37200;BME280;23096;50.892;16.746;2023-04-08T04:57:22;99660.28;;;3.67;80.47
37200;BME280;23096;50.892;16.746;2023-04-08T04:59:48;99662.33;;;3.66;80.19
37200;BME280;23096;50.892;16.746;2023-04-08T05:02:14;99668.27;;;3.67;80.30
37200;BME280;23096;50.892;16.746;2023-04-08T05:04:39;99667.92;;;3.65;80.28
37200;BME280;23096;50.892;16.746;2023-04-08T05:07:05;99670.82;;;3.65;80.15
37200;BME280;23096;50.892;16.746;2023-04-08T05:09:30;99675.23;;;3.64;80.23
37200;BME280;23096;50.892;16.746;2023-04-08T05:11:56;99674.02;;;3.62;80.19
37200;BME280;23096;50.892;16.746;2023-04-08T05:14:21;99679.98;;;3.62;80.15
37200;BME280;23096;50.892;16.746;2023-04-08T05:16:47;99682.86;;;3.61;80.17
37200;BME280;23096;50.892;16.746;2023-04-08T05:19:12;99684.73;;;3.61;80.34
37200;BME280;23096;50.892;16.746;2023-04-08T05:21:38;99690.67;;;3.60;80.20
37200;BME280;23096;50.892;16.746;2023-04-08T05:24:04;99693.39;;;3.57;80.19
37200;BME280;23096;50.892;16.746;2023-04-08T05:26:29;99696.27;;;3.56;80.23
37200;BME280;23096;50.892;16.746;2023-04-08T05:28:55;99693.03;;;3.52;80.19
37200;BME280;23096;50.892;16.746;2023-04-08T05:31:20;99698.62;;;3.49;80.12
37200;BME280;23096;50.892;16.746;2023-04-08T05:33:46;99699.29;;;3.46;80.10
37200;BME280;23096;50.892;16.746;2023-04-08T05:36:13;99704.20;;;3.42;80.22
37200;BME280;23096;50.892;16.746;2023-04-08T05:38:39;99711.31;;;3.40;80.19
37200;BME280;23096;50.892;16.746;2023-04-08T05:41:05;99712.67;;;3.38;80.27
37200;BME280;23096;50.892;16.746;2023-04-08T05:43:33;99718.61;;;3.39;80.21
37200;BME280;23096;50.892;16.746;2023-04-08T05:45:59;99722.52;;;3.38;80.20
37200;BME280;23096;50.892;16.746;2023-04-08T05:48:25;99724.38;;;3.37;80.07
37200;BME280;23096;50.892;16.746;2023-04-08T05:50:50;99725.23;;;3.35;80.08
37200;BME280;23096;50.892;16.746;2023-04-08T05:53:16;99729.12;;;3.34;80.18
37200;BME280;23096;50.892;16.746;2023-04-08T05:55:41;99733.86;;;3.32;80.03
37200;BME280;23096;50.892;16.746;2023-04-08T05:58:07;99733.19;;;3.30;80.05
37200;BME280;23096;50.892;16.746;2023-04-08T06:00:33;99737.27;;;3.30;80.09
37200;BME280;23096;50.892;16.746;2023-04-08T06:02:58;99741.65;;;3.29;80.02
37200;BME280;23096;50.892;16.746;2023-04-08T06:05:24;99743.70;;;3.30;80.04
37200;BME280;23096;50.892;16.746;2023-04-08T06:07:50;99745.74;;;3.31;80.06
37200;BME280;23096;50.892;16.746;2023-04-08T06:10:16;99745.92;;;3.32;80.09
37200;BME280;23096;50.892;16.746;2023-04-08T06:12:41;99747.79;;;3.31;80.05
37200;BME280;23096;50.892;16.746;2023-04-08T06:15:08;99753.23;;;3.33;80.12
37200;BME280;23096;50.892;16.746;2023-04-08T06:17:37;99750.37;;;3.36;80.13
37200;BME280;23096;50.892;16.746;2023-04-08T06:20:06;99755.13;;;3.38;80.18
37200;BME280;23096;50.892;16.746;2023-04-08T06:22:34;99758.20;;;3.41;80.16
37200;BME280;23096;50.892;16.746;2023-04-08T06:25:01;99758.90;;;3.43;80.19
37200;BME280;23096;50.892;16.746;2023-04-08T06:27:26;99760.42;;;3.45;80.16
37200;BME280;23096;50.892;16.746;2023-04-08T06:29:52;99765.88;;;3.47;80.12
37200;BME280;23096;50.892;16.746;2023-04-08T06:32:20;99770.63;;;3.47;80.15
37200;BME280;23096;50.892;16.746;2023-04-08T06:34:47;99776.92;;;3.48;80.24
37200;BME280;23096;50.892;16.746;2023-04-08T06:37:12;99774.89;;;3.49;80.28
37200;BME280;23096;50.892;16.746;2023-04-08T06:39:38;99778.80;;;3.48;80.11
37200;BME280;23096;50.892;16.746;2023-04-08T06:42:03;99789.50;;;3.49;80.13
37200;BME280;23096;50.892;16.746;2023-04-08T06:44:41;99791.02;;;3.47;80.19
37200;BME280;23096;50.892;16.746;2023-04-08T06:47:07;99798.65;;;3.47;80.15
37200;BME280;23096;50.892;16.746;2023-04-08T06:49:33;99798.30;;;3.44;80.05
37200;BME280;23096;50.892;16.746;2023-04-08T06:51:58;99801.19;;;3.43;80.02
37200;BME280;23096;50.892;16.746;2023-04-08T06:54:24;99803.05;;;3.42;80.04
37200;BME280;23096;50.892;16.746;2023-04-08T06:56:49;99807.13;;;3.43;80.06
37200;BME280;23096;50.892;16.746;2023-04-08T06:59:15;99810.53;;;3.43;80.28
37200;BME280;23096;50.892;16.746;2023-04-08T07:01:41;99810.02;;;3.44;80.18
37200;BME280;23096;50.892;16.746;2023-04-08T07:04:06;99811.20;;;3.43;80.04
37200;BME280;23096;50.892;16.746;2023-04-08T07:06:32;99809.33;;;3.42;80.05
37200;BME280;23096;50.892;16.746;2023-04-08T07:08:57;99811.20;;;3.44;80.16
37200;BME280;23096;50.892;16.746;2023-04-08T07:11:23;99813.77;;;3.46;80.05
37200;BME280;23096;50.892;16.746;2023-04-08T07:13:48;99819.39;;;3.48;80.08
37200;BME280;23096;50.892;16.746;2023-04-08T07:16:15;99820.25;;;3.50;80.11
37200;BME280;23096;50.892;16.746;2023-04-08T07:18:40;99823.48;;;3.52;80.15
37200;BME280;23096;50.892;16.746;2023-04-08T07:21:06;99826.89;;;3.53;80.06
37200;BME280;23096;50.892;16.746;2023-04-08T07:23:32;99829.61;;;3.54;79.95
37200;BME280;23096;50.892;16.746;2023-04-08T07:26:02;99832.00;;;3.55;79.99
37200;BME280;23096;50.892;16.746;2023-04-08T07:28:28;99831.83;;;3.56;80.08
37200;BME280;23096;50.892;16.746;2023-04-08T07:30:54;99837.27;;;3.55;79.93
37200;BME280;23096;50.892;16.746;2023-04-08T07:33:19;99838.13;;;3.55;79.98
37200;BME280;23096;50.892;16.746;2023-04-08T07:35:45;99835.73;;;3.54;79.83
37200;BME280;23096;50.892;16.746;2023-04-08T07:38:10;99839.13;;;3.54;79.95
37200;BME280;23096;50.892;16.746;2023-04-08T07:40:37;99843.71;;;3.55;79.86
37200;BME280;23096;50.892;16.746;2023-04-08T07:43:03;99847.98;;;3.58;79.98
37200;BME280;23096;50.892;16.746;2023-04-08T07:45:28;99849.86;;;3.60;80.08
37200;BME280;23096;50.892;16.746;2023-04-08T07:47:54;99850.21;;;3.61;79.99
37200;BME280;23096;50.892;16.746;2023-04-08T07:50:20;99854.83;;;3.64;79.95
37200;BME280;23096;50.892;16.746;2023-04-08T07:52:45;99857.05;;;3.67;80.00
37200;BME280;23096;50.892;16.746;2023-04-08T07:55:11;99860.29;;;3.70;79.90
37200;BME280;23096;50.892;16.746;2023-04-08T07:57:36;99863.89;;;3.74;79.81
37200;BME280;23096;50.892;16.746;2023-04-08T08:00:02;99863.89;;;3.76;79.79
37200;BME280;23096;50.892;16.746;2023-04-08T08:02:38;99865.92;;;3.74;79.71
37200;BME280;23096;50.892;16.746;2023-04-08T08:05:04;99871.52;;;3.73;79.67
37200;BME280;23096;50.892;16.746;2023-04-08T08:07:30;99876.27;;;3.73;79.65
37200;BME280;23096;50.892;16.746;2023-04-08T08:09:56;99878.84;;;3.74;79.59
37200;BME280;23096;50.892;16.746;2023-04-08T08:12:21;99879.52;;;3.75;79.67
37200;BME280;23096;50.892;16.746;2023-04-08T08:14:47;99881.75;;;3.77;79.74
37200;BME280;23096;50.892;16.746;2023-04-08T08:17:12;99886.85;;;3.77;79.63
37200;BME280;23096;50.892;16.746;2023-04-08T08:19:38;99890.92;;;3.77;79.59
37200;BME280;23096;50.892;16.746;2023-04-08T08:22:04;99891.60;;;3.76;79.57
37200;BME280;23096;50.892;16.746;2023-04-08T08:24:30;99897.55;;;3.77;79.56
37200;BME280;23096;50.892;16.746;2023-04-08T08:26:55;99898.91;;;3.76;79.38
37200;BME280;23096;50.892;16.746;2023-04-08T08:29:21;99906.39;;;3.76;79.47
37200;BME280;23096;50.892;16.746;2023-04-08T08:31:46;99907.73;;;3.74;79.42
37200;BME280;23096;50.892;16.746;2023-04-08T08:34:12;99909.93;;;3.73;79.34
37200;BME280;23096;50.892;16.746;2023-04-08T08:36:38;99911.11;;;3.72;79.36
37200;BME280;23096;50.892;16.746;2023-04-08T08:39:03;99912.31;;;3.72;79.33
37200;BME280;23096;50.892;16.746;2023-04-08T08:41:33;99915.69;;;3.71;79.26
37200;BME280;23096;50.892;16.746;2023-04-08T08:44:01;99918.25;;;3.72;79.09
37200;BME280;23096;50.892;16.746;2023-04-08T08:46:29;99914.70;;;3.75;79.19
37200;BME280;23096;50.892;16.746;2023-04-08T08:48:55;99917.27;;;3.78;79.20
37200;BME280;23096;50.892;16.746;2023-04-08T08:51:21;99924.42;;;3.80;79.26
37200;BME280;23096;50.892;16.746;2023-04-08T08:53:47;99923.92;;;3.80;79.18
37200;BME280;23096;50.892;16.746;2023-04-08T08:56:12;99925.45;;;3.82;79.22
37200;BME280;23096;50.892;16.746;2023-04-08T08:58:38;99932.94;;;3.83;79.09
37200;BME280;23096;50.892;16.746;2023-04-08T09:01:31;99932.61;;;3.84;79.00
37200;BME280;23096;50.892;16.746;2023-04-08T09:04:20;99933.63;;;3.85;78.98
37200;BME280;23096;50.892;16.746;2023-04-08T09:07:07;99938.23;;;3.86;78.95
37200;BME280;23096;50.892;16.746;2023-04-08T09:09:49;99942.65;;;3.85;78.90
37200;BME280;23096;50.892;16.746;2023-04-08T09:12:15;99943.65;;;3.83;78.70
37200;BME280;23096;50.892;16.746;2023-04-08T09:14:41;99949.58;;;3.82;78.88
37200;BME280;23096;50.892;16.746;2023-04-08T09:17:07;99949.58;;;3.81;78.77
37200;BME280;23096;50.892;16.746;2023-04-08T09:19:33;99955.53;;;3.83;78.88
37200;BME280;23096;50.892;16.746;2023-04-08T09:22:09;99955.90;;;3.84;78.81
37200;BME280;23096;50.892;16.746;2023-04-08T09:24:36;99960.67;;;3.87;78.77
37200;BME280;23096;50.892;16.746;2023-04-08T09:27:03;99959.83;;;3.89;78.67
37200;BME280;23096;50.892;16.746;2023-04-08T09:29:29;99961.02;;;3.89;78.57
37200;BME280;23096;50.892;16.746;2023-04-08T09:31:56;99969.37;;;3.92;78.66
37200;BME280;23096;50.892;16.746;2023-04-08T09:34:23;99971.92;;;3.93;78.61
37200;BME280;23096;50.892;16.746;2023-04-08T09:36:49;99971.92;;;3.93;78.54
37200;BME280;23096;50.892;16.746;2023-04-08T09:39:15;99973.48;;;3.96;78.65
37200;BME280;23096;50.892;16.746;2023-04-08T09:41:42;99977.58;;;3.99;78.69
37200;BME280;23096;50.892;16.746;2023-04-08T09:44:10;99977.44;;;4.02;78.65
37200;BME280;23096;50.892;16.746;2023-04-08T09:52:32;99981.45;;;4.22;78.66
37200;BME280;23096;50.892;16.746;2023-04-08T09:55:02;99987.96;;;4.29;78.68
37200;BME280;23096;50.892;16.746;2023-04-08T09:57:36;99990.38;;;4.35;78.65
37200;BME280;23096;50.892;16.746;2023-04-08T10:00:08;99988.70;;;4.42;78.66
37200;BME280;23096;50.892;16.746;2023-04-08T10:03:05;99990.61;;;4.49;78.60
37200;BME280;23096;50.892;16.746;2023-04-08T10:05:37;99996.43;;;4.57;78.53
37200;BME280;23096;50.892;16.746;2023-04-08T10:08:05;99996.13;;;4.63;78.56
37200;BME280;23096;50.892;16.746;2023-04-08T10:10:33;99998.36;;;4.69;78.41
37200;BME280;23096;50.892;16.746;2023-04-08T10:13:00;100000.41;;;4.73;78.42
37200;BME280;23096;50.892;16.746;2023-04-08T10:15:28;100000.09;;;4.76;78.33
37200;BME280;23096;50.892;16.746;2023-04-08T10:17:55;100003.85;;;4.81;78.37
37200;BME280;23096;50.892;16.746;2023-04-08T10:20:47;100003.88;;;4.86;78.25
37200;BME280;23096;50.892;16.746;2023-04-08T10:23:15;100004.89;;;4.86;78.22
37200;BME280;23096;50.892;16.746;2023-04-08T10:25:44;100003.38;;;4.90;78.17
37200;BME280;23096;50.892;16.746;2023-04-08T10:33:32;100006.98;;;5.03;78.26
37200;BME280;23096;50.892;16.746;2023-04-08T10:36:09;100006.84;;;5.10;78.21
37200;BME280;23096;50.892;16.746;2023-04-08T10:38:39;100003.44;;;5.15;78.07
37200;BME280;23096;50.892;16.746;2023-04-08T10:41:06;100001.41;;;5.22;78.09
37200;BME280;23096;50.892;16.746;2023-04-08T10:43:33;100005.85;;;5.28;78.00
37200;BME280;23096;50.892;16.746;2023-04-08T10:45:58;100000.75;;;5.34;78.01
37200;BME280;23096;50.892;16.746;2023-04-08T10:48:24;100001.27;;;5.41;77.95
37200;BME280;23096;50.892;16.746;2023-04-08T10:50:59;100005.88;;;5.47;77.95
37200;BME280;23096;50.892;16.746;2023-04-08T10:53:25;100001.11;;;5.50;77.82
37200;BME280;23096;50.892;16.746;2023-04-08T10:55:52;100000.42;;;5.55;77.82
37200;BME280;23096;50.892;16.746;2023-04-08T10:58:18;100000.27;;;5.58;77.70
37200;BME280;23096;50.892;16.746;2023-04-08T11:00:43;100002.13;;;5.60;77.62
37200;BME280;23096;50.892;16.746;2023-04-08T11:03:10;99999.92;;;5.57;77.48
37200;BME280;23096;50.892;16.746;2023-04-08T11:05:37;100003.66;;;5.54;77.39
37200;BME280;23096;50.892;16.746;2023-04-08T11:08:04;100003.15;;;5.51;77.28
37200;BME280;23096;50.892;16.746;2023-04-08T11:10:30;99999.92;;;5.50;77.34
37200;BME280;23096;50.892;16.746;2023-04-08T11:12:57;100001.63;;;5.55;77.31
37200;BME280;23096;50.892;16.746;2023-04-08T11:15:23;100003.50;;;5.62;77.52
37200;BME280;23096;50.892;16.746;2023-04-08T11:17:50;100006.40;;;5.68;77.51
37200;BME280;23096;50.892;16.746;2023-04-08T11:20:16;100005.73;;;5.72;77.30
37200;BME280;23096;50.892;16.746;2023-04-08T11:22:43;100006.57;;;5.75;77.18
37200;BME280;23096;50.892;16.746;2023-04-08T11:25:10;100006.91;;;5.78;77.20
37200;BME280;23096;50.892;16.746;2023-04-08T11:27:37;100006.91;;;5.81;77.14
37200;BME280;23096;50.892;16.746;2023-04-08T11:30:04;100009.48;;;5.83;77.15
37200;BME280;23096;50.892;16.746;2023-04-08T11:32:30;100011.86;;;5.86;76.99
37200;BME280;23096;50.892;16.746;2023-04-08T11:34:59;100011.34;;;5.91;76.93
37200;BME280;23096;50.892;16.746;2023-04-08T11:37:25;100011.37;;;5.96;77.03
37200;BME280;23096;50.892;16.746;2023-04-08T11:39:54;100009.83;;;6.00;76.92
37200;BME280;23096;50.892;16.746;2023-04-08T11:42:28;99999.75;;;6.01;76.70
37200;BME280;23096;50.892;16.746;2023-04-08T11:44:54;99996.51;;;6.05;76.84
37200;BME280;23096;50.892;16.746;2023-04-08T11:47:20;99995.98;;;6.13;76.87
37200;BME280;23096;50.892;16.746;2023-04-08T11:49:46;99996.98;;;6.20;76.73
37200;BME280;23096;50.892;16.746;2023-04-08T11:52:12;99996.98;;;6.29;76.74
37200;BME280;23096;50.892;16.746;2023-04-08T11:54:41;99997.63;;;6.46;76.91
37200;BME280;23096;50.892;16.746;2023-04-08T11:57:08;99999.80;;;6.60;76.86
37200;BME280;23096;50.892;16.746;2023-04-08T11:59:36;100003.34;;;6.68;76.67
37200;BME280;23096;50.892;16.746;2023-04-08T12:02:02;100000.58;;;6.77;76.61
37200;BME280;23096;50.892;16.746;2023-04-08T12:04:28;100000.34;;;6.90;76.68
37200;BME280;23096;50.892;16.746;2023-04-08T12:06:55;99999.73;;;7.09;76.83
37200;BME280;23096;50.892;16.746;2023-04-08T12:09:20;99996.61;;;7.17;76.45
37200;BME280;23096;50.892;16.746;2023-04-08T12:11:46;99998.48;;;7.19;76.25
37200;BME280;23096;50.892;16.746;2023-04-08T12:14:12;99998.11;;;7.23;76.10
37200;BME280;23096;50.892;16.746;2023-04-08T12:16:37;99998.10;;;7.26;75.98
37200;BME280;23096;50.892;16.746;2023-04-08T12:19:03;99999.64;;;7.25;75.91
37200;BME280;23096;50.892;16.746;2023-04-08T12:21:29;100004.95;;;7.24;75.77
37200;BME280;23096;50.892;16.746;2023-04-08T12:23:54;100009.36;;;7.28;75.83
37200;BME280;23096;50.892;16.746;2023-04-08T12:26:20;100009.17;;;7.33;75.78
37200;BME280;23096;50.892;16.746;2023-04-08T12:28:45;100009.17;;;7.33;75.56
37200;BME280;23096;50.892;16.746;2023-04-08T12:31:11;100009.69;;;7.32;75.46
37200;BME280;23096;50.892;16.746;2023-04-08T12:33:37;100016.69;;;7.31;75.25
37200;BME280;23096;50.892;16.746;2023-04-08T12:36:02;100019.07;;;7.33;75.24
37200;BME280;23096;50.892;16.746;2023-04-08T12:38:28;100016.52;;;7.30;75.09
37200;BME280;23096;50.892;16.746;2023-04-08T12:40:54;100019.61;;;7.30;74.84
37200;BME280;23096;50.892;16.746;2023-04-08T12:43:21;100017.40;;;7.29;74.86
37200;BME280;23096;50.892;16.746;2023-04-08T12:45:48;100013.97;;;7.28;74.85
37200;BME280;23096;50.892;16.746;2023-04-08T12:48:13;100016.52;;;7.32;74.80
37200;BME280;23096;50.892;16.746;2023-04-08T12:50:39;100016.48;;;7.36;74.78
37200;BME280;23096;50.892;16.746;2023-04-08T12:53:04;100009.94;;;7.44;74.89
37200;BME280;23096;50.892;16.746;2023-04-08T12:55:30;100005.11;;;7.50;74.78
37200;BME280;23096;50.892;16.746;2023-04-08T12:57:55;100004.41;;;7.54;74.60
37200;BME280;23096;50.892;16.746;2023-04-08T13:00:21;100008.66;;;7.55;74.52
37200;BME280;23096;50.892;16.746;2023-04-08T13:02:46;100005.41;;;7.57;74.38
37200;BME280;23096;50.892;16.746;2023-04-08T13:05:12;100006.42;;;7.57;74.32
37200;BME280;23096;50.892;16.746;2023-04-08T13:07:38;100001.60;;;7.62;74.46